sensor_id;sensor_type;location;lat;lon;timestamp;P1;durP1;ratioP1;P2;durP2;ratioP2
7961;SDS011;4026;43.652;24.906;2023-12-14T00:01:43;8.53;;;4.77;;
7961;SDS011;4026;43.652;24.906;2023-12-14T00:04:11;7.67;;;5.07;;
7961;SDS011;4026;43.652;24.906;2023-12-14T00:06:39;5.30;;;2.80;;
7961;SDS011;4026;43.652;24.906;2023-12-14T00:09:06;5.63;;;2.80;;
7961;SDS011;4026;43.652;24.906;2023-12-14T00:11:37;3.73;;;3.27;;
7961;SDS011;4026;43.652;24.906;2023-12-14T00:14:04;5.87;;;3.20;;
7961;SDS011;4026;43.652;24.906;2023-12-14T00:16:31;3.70;;;3.03;;
7961;SDS011;4026;43.652;24.906;2023-12-14T00:18:58;6.83;;;4.17;;
7961;SDS011;4026;43.652;24.906;2023-12-14T00:21:24;5.30;;;3.90;;
7961;SDS011;4026;43.652;24.906;2023-12-14T00:23:53;6.23;;;4.33;;
7961;SDS011;4026;43.652;24.906;2023-12-14T00:26:19;6.27;;;4.10;;
7961;SDS011;4026;43.652;24.906;2023-12-14T00:28:46;5.20;;;3.13;;
7961;SDS011;4026;43.652;24.906;2023-12-14T00:31:13;7.00;;;4.30;;
7961;SDS011;4026;43.652;24.906;2023-12-14T00:33:40;7.20;;;4.93;;
7961;SDS011;4026;43.652;24.906;2023-12-14T00:36:07;7.83;;;4.70;;
7961;SDS011;4026;43.652;24.906;2023-12-14T00:38:34;5.33;;;3.83;;
7961;SDS011;4026;43.652;24.906;2023-12-14T00:41:02;6.13;;;3.80;;
7961;SDS011;4026;43.652;24.906;2023-12-14T00:43:29;4.60;;;3.53;;
7961;SDS011;4026;43.652;24.906;2023-12-14T00:45:56;6.40;;;4.17;;
7961;SDS011;4026;43.652;24.906;2023-12-14T00:48:23;7.83;;;3.83;;
7961;SDS011;4026;43.652;24.906;2023-12-14T00:50:50;6.07;;;4.03;;
7961;SDS011;4026;43.652;24.906;2023-12-14T00:53:16;5.97;;;3.67;;
7961;SDS011;4026;43.652;24.906;2023-12-14T00:55:43;5.13;;;3.37;;
7961;SDS011;4026;43.652;24.906;2023-12-14T00:58:12;8.90;;;4.33;;
7961;SDS011;4026;43.652;24.906;2023-12-14T01:00:39;8.57;;;4.63;;
7961;SDS011;4026;43.652;24.906;2023-12-14T01:03:05;5.17;;;3.50;;
7961;SDS011;4026;43.652;24.906;2023-12-14T01:05:32;8.70;;;3.77;;
7961;SDS011;4026;43.652;24.906;2023-12-14T01:07:59;9.23;;;4.13;;
7961;SDS011;4026;43.652;24.906;2023-12-14T01:10:26;6.37;;;3.90;;
7961;SDS011;4026;43.652;24.906;2023-12-14T01:12:53;7.93;;;4.60;;
7961;SDS011;4026;43.652;24.906;2023-12-14T01:15:21;4.83;;;3.70;;
7961;SDS011;4026;43.652;24.906;2023-12-14T01:17:47;8.13;;;5.20;;
7961;SDS011;4026;43.652;24.906;2023-12-14T01:20:14;5.97;;;4.27;;
7961;SDS011;4026;43.652;24.906;2023-12-14T01:22:41;7.53;;;4.13;;
7961;SDS011;4026;43.652;24.906;2023-12-14T01:25:08;5.80;;;4.13;;
7961;SDS011;4026;43.652;24.906;2023-12-14T01:27:35;5.17;;;4.07;;
7961;SDS011;4026;43.652;24.906;2023-12-14T01:30:01;6.97;;;4.30;;
7961;SDS011;4026;43.652;24.906;2023-12-14T01:32:30;6.50;;;4.23;;
7961;SDS011;4026;43.652;24.906;2023-12-14T01:34:57;6.17;;;3.93;;
7961;SDS011;4026;43.652;24.906;2023-12-14T01:37:23;5.10;;;3.20;;
7961;SDS011;4026;43.652;24.906;2023-12-14T01:39:50;8.30;;;5.37;;
7961;SDS011;4026;43.652;24.906;2023-12-14T01:42:17;8.43;;;5.20;;
7961;SDS011;4026;43.652;24.906;2023-12-14T01:44:44;5.00;;;3.73;;
7961;SDS011;4026;43.652;24.906;2023-12-14T01:47:10;5.33;;;3.67;;
7961;SDS011;4026;43.652;24.906;2023-12-14T01:49:39;5.70;;;3.73;;
7961;SDS011;4026;43.652;24.906;2023-12-14T01:52:06;6.70;;;3.53;;
7961;SDS011;4026;43.652;24.906;2023-12-14T01:54:33;5.40;;;4.27;;
7961;SDS011;4026;43.652;24.906;2023-12-14T01:57:00;7.30;;;4.07;;
7961;SDS011;4026;43.652;24.906;2023-12-14T01:59:27;7.13;;;4.70;;
7961;SDS011;4026;43.652;24.906;2023-12-14T02:01:54;7.10;;;4.33;;
7961;SDS011;4026;43.652;24.906;2023-12-14T02:04:22;5.73;;;3.43;;
7961;SDS011;4026;43.652;24.906;2023-12-14T02:06:51;10.47;;;3.70;;
7961;SDS011;4026;43.652;24.906;2023-12-14T02:09:18;5.43;;;2.97;;
7961;SDS011;4026;43.652;24.906;2023-12-14T02:11:45;7.97;;;4.17;;
7961;SDS011;4026;43.652;24.906;2023-12-14T02:14:12;7.00;;;3.07;;
7961;SDS011;4026;43.652;24.906;2023-12-14T02:16:39;6.77;;;3.60;;
7961;SDS011;4026;43.652;24.906;2023-12-14T02:19:06;3.33;;;2.87;;
7961;SDS011;4026;43.652;24.906;2023-12-14T02:21:32;7.13;;;3.90;;
7961;SDS011;4026;43.652;24.906;2023-12-14T02:24:01;6.73;;;3.90;;
7961;SDS011;4026;43.652;24.906;2023-12-14T02:26:27;4.20;;;3.33;;
7961;SDS011;4026;43.652;24.906;2023-12-14T02:28:54;6.50;;;3.93;;
7961;SDS011;4026;43.652;24.906;2023-12-14T02:31:23;3.57;;;2.63;;
7961;SDS011;4026;43.652;24.906;2023-12-14T02:33:50;8.43;;;3.17;;
7961;SDS011;4026;43.652;24.906;2023-12-14T02:36:16;4.47;;;2.93;;
7961;SDS011;4026;43.652;24.906;2023-12-14T02:38:43;4.10;;;2.57;;
7961;SDS011;4026;43.652;24.906;2023-12-14T02:41:11;4.07;;;3.27;;
7961;SDS011;4026;43.652;24.906;2023-12-14T02:43:38;5.10;;;3.27;;
7961;SDS011;4026;43.652;24.906;2023-12-14T02:46:06;8.43;;;3.57;;
7961;SDS011;4026;43.652;24.906;2023-12-14T02:48:32;5.60;;;3.33;;
7961;SDS011;4026;43.652;24.906;2023-12-14T02:50:59;5.97;;;3.93;;
7961;SDS011;4026;43.652;24.906;2023-12-14T02:53:26;7.17;;;3.90;;
7961;SDS011;4026;43.652;24.906;2023-12-14T02:55:53;6.90;;;4.53;;
7961;SDS011;4026;43.652;24.906;2023-12-14T02:58:21;6.80;;;4.50;;
7961;SDS011;4026;43.652;24.906;2023-12-14T03:00:48;3.77;;;2.57;;
7961;SDS011;4026;43.652;24.906;2023-12-14T03:03:15;5.10;;;4.40;;
7961;SDS011;4026;43.652;24.906;2023-12-14T03:05:42;5.53;;;3.70;;
7961;SDS011;4026;43.652;24.906;2023-12-14T03:08:08;6.47;;;3.60;;
7961;SDS011;4026;43.652;24.906;2023-12-14T03:10:35;5.30;;;3.37;;
7961;SDS011;4026;43.652;24.906;2023-12-14T03:13:02;5.40;;;3.07;;
7961;SDS011;4026;43.652;24.906;2023-12-14T03:15:30;8.40;;;3.93;;
7961;SDS011;4026;43.652;24.906;2023-12-14T03:17:57;6.10;;;3.43;;
7961;SDS011;4026;43.652;24.906;2023-12-14T03:20:24;5.53;;;2.77;;
7961;SDS011;4026;43.652;24.906;2023-12-14T03:22:51;5.60;;;3.43;;
7961;SDS011;4026;43.652;24.906;2023-12-14T03:25:17;5.97;;;3.93;;
7961;SDS011;4026;43.652;24.906;2023-12-14T03:27:44;9.43;;;3.87;;
7961;SDS011;4026;43.652;24.906;2023-12-14T03:30:11;6.57;;;4.00;;
7961;SDS011;4026;43.652;24.906;2023-12-14T03:32:39;7.20;;;4.30;;
7961;SDS011;4026;43.652;24.906;2023-12-14T03:35:07;8.50;;;3.83;;
7961;SDS011;4026;43.652;24.906;2023-12-14T03:37:34;6.07;;;4.13;;
7961;SDS011;4026;43.652;24.906;2023-12-14T03:40:01;7.90;;;3.67;;
7961;SDS011;4026;43.652;24.906;2023-12-14T03:42:28;7.97;;;4.80;;
7961;SDS011;4026;43.652;24.906;2023-12-14T03:44:55;5.37;;;4.10;;
7961;SDS011;4026;43.652;24.906;2023-12-14T03:47:22;3.10;;;2.73;;
7961;SDS011;4026;43.652;24.906;2023-12-14T03:49:50;5.63;;;3.33;;
7961;SDS011;4026;43.652;24.906;2023-12-14T03:52:17;9.77;;;4.43;;
7961;SDS011;4026;43.652;24.906;2023-12-14T03:54:44;8.50;;;4.87;;
7961;SDS011;4026;43.652;24.906;2023-12-14T03:57:11;8.43;;;4.83;;
7961;SDS011;4026;43.652;24.906;2023-12-14T03:59:38;6.37;;;3.57;;
7961;SDS011;4026;43.652;24.906;2023-12-14T04:02:05;6.67;;;4.63;;
7961;SDS011;4026;43.652;24.906;2023-12-14T04:04:32;11.03;;;5.13;;
7961;SDS011;4026;43.652;24.906;2023-12-14T04:07:00;7.30;;;4.70;;
7961;SDS011;4026;43.652;24.906;2023-12-14T04:09:27;10.90;;;4.97;;
7961;SDS011;4026;43.652;24.906;2023-12-14T04:11:54;5.53;;;3.63;;
7961;SDS011;4026;43.652;24.906;2023-12-14T04:14:21;12.03;;;6.17;;
7961;SDS011;4026;43.652;24.906;2023-12-14T04:16:46;7.00;;;4.73;;
7961;SDS011;4026;43.652;24.906;2023-12-14T04:19:13;6.73;;;4.20;;
7961;SDS011;4026;43.652;24.906;2023-12-14T04:21:40;8.33;;;5.20;;
7961;SDS011;4026;43.652;24.906;2023-12-14T04:24:08;7.90;;;5.80;;
7961;SDS011;4026;43.652;24.906;2023-12-14T04:26:37;5.60;;;3.60;;
7961;SDS011;4026;43.652;24.906;2023-12-14T04:29:05;12.47;;;5.23;;
7961;SDS011;4026;43.652;24.906;2023-12-14T04:31:32;7.43;;;4.87;;
7961;SDS011;4026;43.652;24.906;2023-12-14T04:33:59;9.43;;;5.33;;
7961;SDS011;4026;43.652;24.906;2023-12-14T04:36:26;14.77;;;6.60;;
7961;SDS011;4026;43.652;24.906;2023-12-14T04:38:53;13.50;;;4.87;;
7961;SDS011;4026;43.652;24.906;2023-12-14T04:41:21;8.90;;;5.00;;
7961;SDS011;4026;43.652;24.906;2023-12-14T04:43:48;6.23;;;4.27;;
7961;SDS011;4026;43.652;24.906;2023-12-14T04:46:15;7.23;;;5.03;;
7961;SDS011;4026;43.652;24.906;2023-12-14T04:48:42;12.60;;;5.10;;
7961;SDS011;4026;43.652;24.906;2023-12-14T04:51:11;12.33;;;7.93;;
7961;SDS011;4026;43.652;24.906;2023-12-14T04:53:38;14.40;;;7.23;;
7961;SDS011;4026;43.652;24.906;2023-12-14T04:56:09;25.87;;;4.73;;
7961;SDS011;4026;43.652;24.906;2023-12-14T04:58:37;9.83;;;5.10;;
7961;SDS011;4026;43.652;24.906;2023-12-14T05:01:04;7.63;;;3.90;;
7961;SDS011;4026;43.652;24.906;2023-12-14T05:03:31;3.90;;;3.00;;
7961;SDS011;4026;43.652;24.906;2023-12-14T05:05:59;6.00;;;3.97;;
7961;SDS011;4026;43.652;24.906;2023-12-14T05:08:26;7.47;;;4.83;;
7961;SDS011;4026;43.652;24.906;2023-12-14T05:10:53;6.40;;;4.20;;
7961;SDS011;4026;43.652;24.906;2023-12-14T05:13:19;15.00;;;4.93;;
7961;SDS011;4026;43.652;24.906;2023-12-14T05:15:47;6.40;;;3.27;;
7961;SDS011;4026;43.652;24.906;2023-12-14T05:18:14;5.67;;;3.67;;
7961;SDS011;4026;43.652;24.906;2023-12-14T05:20:41;6.50;;;3.40;;
7961;SDS011;4026;43.652;24.906;2023-12-14T05:23:08;7.07;;;4.07;;
7961;SDS011;4026;43.652;24.906;2023-12-14T05:25:35;7.17;;;2.83;;
7961;SDS011;4026;43.652;24.906;2023-12-14T05:28:02;3.10;;;2.37;;
7961;SDS011;4026;43.652;24.906;2023-12-14T05:30:29;3.90;;;2.50;;
7961;SDS011;4026;43.652;24.906;2023-12-14T05:32:57;4.47;;;3.53;;
7961;SDS011;4026;43.652;24.906;2023-12-14T05:35:24;3.33;;;2.10;;
7961;SDS011;4026;43.652;24.906;2023-12-14T05:37:50;2.87;;;2.20;;
7961;SDS011;4026;43.652;24.906;2023-12-14T05:40:17;4.03;;;2.87;;
7961;SDS011;4026;43.652;24.906;2023-12-14T05:42:44;3.97;;;2.67;;
7961;SDS011;4026;43.652;24.906;2023-12-14T05:45:11;4.67;;;3.00;;
7961;SDS011;4026;43.652;24.906;2023-12-14T05:47:38;5.03;;;3.20;;
7961;SDS011;4026;43.652;24.906;2023-12-14T05:50:08;2.83;;;2.43;;
7961;SDS011;4026;43.652;24.906;2023-12-14T05:52:35;4.70;;;3.03;;
7961;SDS011;4026;43.652;24.906;2023-12-14T05:55:02;6.17;;;2.83;;
7961;SDS011;4026;43.652;24.906;2023-12-14T05:57:30;4.20;;;2.87;;
7961;SDS011;4026;43.652;24.906;2023-12-14T05:59:56;5.27;;;3.17;;
7961;SDS011;4026;43.652;24.906;2023-12-14T06:02:23;5.47;;;3.40;;
7961;SDS011;4026;43.652;24.906;2023-12-14T06:04:50;10.47;;;2.83;;
7961;SDS011;4026;43.652;24.906;2023-12-14T06:07:18;4.20;;;1.63;;
7961;SDS011;4026;43.652;24.906;2023-12-14T06:09:45;2.43;;;2.23;;
7961;SDS011;4026;43.652;24.906;2023-12-14T06:12:12;2.17;;;1.97;;
7961;SDS011;4026;43.652;24.906;2023-12-14T06:14:39;4.27;;;2.23;;
7961;SDS011;4026;43.652;24.906;2023-12-14T06:17:06;2.73;;;1.93;;
7961;SDS011;4026;43.652;24.906;2023-12-14T06:19:32;4.47;;;3.37;;
7961;SDS011;4026;43.652;24.906;2023-12-14T06:21:59;6.67;;;3.13;;
7961;SDS011;4026;43.652;24.906;2023-12-14T06:24:27;3.43;;;2.97;;
7961;SDS011;4026;43.652;24.906;2023-12-14T06:26:54;1.37;;;1.27;;
7961;SDS011;4026;43.652;24.906;2023-12-14T06:29:21;4.17;;;3.43;;
7961;SDS011;4026;43.652;24.906;2023-12-14T06:31:48;3.70;;;2.53;;
7961;SDS011;4026;43.652;24.906;2023-12-14T06:34:15;4.80;;;2.70;;
7961;SDS011;4026;43.652;24.906;2023-12-14T06:36:42;3.30;;;2.90;;
7961;SDS011;4026;43.652;24.906;2023-12-14T06:39:09;6.47;;;3.37;;
7961;SDS011;4026;43.652;24.906;2023-12-14T06:41:37;4.37;;;2.23;;
7961;SDS011;4026;43.652;24.906;2023-12-14T06:44:04;3.50;;;1.30;;
7961;SDS011;4026;43.652;24.906;2023-12-14T06:46:34;3.53;;;2.00;;
7961;SDS011;4026;43.652;24.906;2023-12-14T06:49:01;3.80;;;3.10;;
7961;SDS011;4026;43.652;24.906;2023-12-14T06:51:27;7.23;;;3.47;;
7961;SDS011;4026;43.652;24.906;2023-12-14T06:53:54;6.03;;;3.93;;
7961;SDS011;4026;43.652;24.906;2023-12-14T06:56:21;7.77;;;4.17;;
7961;SDS011;4026;43.652;24.906;2023-12-14T06:58:49;3.27;;;2.57;;
7961;SDS011;4026;43.652;24.906;2023-12-14T07:01:16;5.17;;;3.10;;
7961;SDS011;4026;43.652;24.906;2023-12-14T07:03:43;7.17;;;3.23;;
7961;SDS011;4026;43.652;24.906;2023-12-14T07:06:11;4.33;;;3.57;;
7961;SDS011;4026;43.652;24.906;2023-12-14T07:08:39;5.03;;;3.13;;
7961;SDS011;4026;43.652;24.906;2023-12-14T07:11:06;5.10;;;2.63;;
7961;SDS011;4026;43.652;24.906;2023-12-14T07:13:34;3.17;;;2.53;;
7961;SDS011;4026;43.652;24.906;2023-12-14T07:16:04;4.23;;;2.43;;
7961;SDS011;4026;43.652;24.906;2023-12-14T07:18:33;3.47;;;3.07;;
7961;SDS011;4026;43.652;24.906;2023-12-14T07:21:00;4.70;;;2.37;;
7961;SDS011;4026;43.652;24.906;2023-12-14T07:23:26;3.80;;;2.70;;
7961;SDS011;4026;43.652;24.906;2023-12-14T07:25:53;6.13;;;3.50;;
7961;SDS011;4026;43.652;24.906;2023-12-14T07:28:21;5.03;;;2.90;;
7961;SDS011;4026;43.652;24.906;2023-12-14T07:30:48;4.10;;;2.80;;
7961;SDS011;4026;43.652;24.906;2023-12-14T07:33:17;5.60;;;2.33;;
7961;SDS011;4026;43.652;24.906;2023-12-14T07:35:44;1.93;;;1.80;;
7961;SDS011;4026;43.652;24.906;2023-12-14T07:38:11;2.00;;;1.47;;
7961;SDS011;4026;43.652;24.906;2023-12-14T07:40:38;6.10;;;2.80;;
7961;SDS011;4026;43.652;24.906;2023-12-14T07:43:05;4.27;;;2.13;;
7961;SDS011;4026;43.652;24.906;2023-12-14T07:45:32;1.17;;;1.17;;
7961;SDS011;4026;43.652;24.906;2023-12-14T07:47:59;2.20;;;1.70;;
7961;SDS011;4026;43.652;24.906;2023-12-14T07:50:27;2.97;;;1.80;;
7961;SDS011;4026;43.652;24.906;2023-12-14T07:52:54;2.47;;;1.90;;
7961;SDS011;4026;43.652;24.906;2023-12-14T07:55:21;3.23;;;1.93;;
7961;SDS011;4026;43.652;24.906;2023-12-14T07:57:48;1.90;;;1.37;;
7961;SDS011;4026;43.652;24.906;2023-12-14T08:00:15;3.90;;;2.40;;
7961;SDS011;4026;43.652;24.906;2023-12-14T08:02:42;2.30;;;1.80;;
7961;SDS011;4026;43.652;24.906;2023-12-14T08:05:09;2.17;;;1.73;;
7961;SDS011;4026;43.652;24.906;2023-12-14T08:07:38;5.00;;;2.60;;
7961;SDS011;4026;43.652;24.906;2023-12-14T08:10:05;2.17;;;1.97;;
7961;SDS011;4026;43.652;24.906;2023-12-14T08:12:32;3.80;;;3.03;;
7961;SDS011;4026;43.652;24.906;2023-12-14T08:14:59;6.17;;;3.73;;
7961;SDS011;4026;43.652;24.906;2023-12-14T08:17:25;4.27;;;3.20;;
7961;SDS011;4026;43.652;24.906;2023-12-14T08:19:53;11.73;;;3.77;;
7961;SDS011;4026;43.652;24.906;2023-12-14T08:22:20;3.57;;;2.20;;
7961;SDS011;4026;43.652;24.906;2023-12-14T08:24:48;5.20;;;2.30;;
7961;SDS011;4026;43.652;24.906;2023-12-14T08:27:15;3.80;;;2.53;;
7961;SDS011;4026;43.652;24.906;2023-12-14T08:29:42;3.67;;;2.00;;
7961;SDS011;4026;43.652;24.906;2023-12-14T08:32:10;5.77;;;3.77;;
7961;SDS011;4026;43.652;24.906;2023-12-14T08:34:37;3.77;;;2.30;;
7961;SDS011;4026;43.652;24.906;2023-12-14T08:37:04;4.07;;;2.63;;
7961;SDS011;4026;43.652;24.906;2023-12-14T08:39:30;2.93;;;2.40;;
7961;SDS011;4026;43.652;24.906;2023-12-14T08:41:59;7.33;;;4.50;;
7961;SDS011;4026;43.652;24.906;2023-12-14T08:44:25;6.90;;;4.47;;
7961;SDS011;4026;43.652;24.906;2023-12-14T08:46:52;7.03;;;3.53;;
7961;SDS011;4026;43.652;24.906;2023-12-14T08:49:19;4.00;;;3.03;;
7961;SDS011;4026;43.652;24.906;2023-12-14T08:51:48;11.87;;;4.27;;
7961;SDS011;4026;43.652;24.906;2023-12-14T08:54:15;4.60;;;3.30;;
7961;SDS011;4026;43.652;24.906;2023-12-14T08:56:42;9.63;;;4.10;;
7961;SDS011;4026;43.652;24.906;2023-12-14T08:59:10;7.37;;;4.37;;
7961;SDS011;4026;43.652;24.906;2023-12-14T09:01:38;9.27;;;4.10;;
7961;SDS011;4026;43.652;24.906;2023-12-14T09:04:05;4.83;;;3.13;;
7961;SDS011;4026;43.652;24.906;2023-12-14T09:06:32;5.50;;;3.17;;
7961;SDS011;4026;43.652;24.906;2023-12-14T09:08:58;5.00;;;3.67;;
7961;SDS011;4026;43.652;24.906;2023-12-14T09:11:25;4.97;;;3.50;;
7961;SDS011;4026;43.652;24.906;2023-12-14T09:13:52;4.17;;;2.87;;
7961;SDS011;4026;43.652;24.906;2023-12-14T09:16:20;3.70;;;2.53;;
7961;SDS011;4026;43.652;24.906;2023-12-14T09:18:47;10.50;;;5.23;;
7961;SDS011;4026;43.652;24.906;2023-12-14T09:21:14;5.33;;;3.27;;
7961;SDS011;4026;43.652;24.906;2023-12-14T09:23:41;8.33;;;4.13;;
7961;SDS011;4026;43.652;24.906;2023-12-14T09:26:07;8.60;;;3.83;;
7961;SDS011;4026;43.652;24.906;2023-12-14T09:28:35;13.17;;;4.80;;
7961;SDS011;4026;43.652;24.906;2023-12-14T09:31:02;9.23;;;4.93;;
7961;SDS011;4026;43.652;24.906;2023-12-14T09:33:31;16.30;;;7.07;;
7961;SDS011;4026;43.652;24.906;2023-12-14T09:35:58;19.77;;;6.73;;
7961;SDS011;4026;43.652;24.906;2023-12-14T09:38:24;13.23;;;6.03;;
7961;SDS011;4026;43.652;24.906;2023-12-14T09:40:51;7.43;;;6.37;;
7961;SDS011;4026;43.652;24.906;2023-12-14T09:43:18;12.10;;;5.43;;
7961;SDS011;4026;43.652;24.906;2023-12-14T09:45:46;7.83;;;5.07;;
7961;SDS011;4026;43.652;24.906;2023-12-14T09:48:13;15.63;;;8.07;;
7961;SDS011;4026;43.652;24.906;2023-12-14T09:50:44;19.67;;;6.87;;
7961;SDS011;4026;43.652;24.906;2023-12-14T09:53:11;8.70;;;4.93;;
7961;SDS011;4026;43.652;24.906;2023-12-14T09:55:37;16.80;;;6.97;;
7961;SDS011;4026;43.652;24.906;2023-12-14T09:58:04;14.43;;;5.90;;
7961;SDS011;4026;43.652;24.906;2023-12-14T10:00:34;9.33;;;5.60;;
7961;SDS011;4026;43.652;24.906;2023-12-14T10:03:17;16.37;;;6.77;;
7961;SDS011;4026;43.652;24.906;2023-12-14T10:05:47;15.93;;;7.10;;
7961;SDS011;4026;43.652;24.906;2023-12-14T10:08:14;16.53;;;5.47;;
7961;SDS011;4026;43.652;24.906;2023-12-14T10:10:41;16.63;;;6.43;;
7961;SDS011;4026;43.652;24.906;2023-12-14T10:13:08;10.60;;;5.93;;
7961;SDS011;4026;43.652;24.906;2023-12-14T10:15:41;8.03;;;5.13;;
7961;SDS011;4026;43.652;24.906;2023-12-14T10:18:08;22.73;;;7.67;;
7961;SDS011;4026;43.652;24.906;2023-12-14T10:20:35;14.13;;;5.67;;
7961;SDS011;4026;43.652;24.906;2023-12-14T10:23:05;9.60;;;4.97;;
7961;SDS011;4026;43.652;24.906;2023-12-14T10:25:33;16.10;;;6.60;;
7961;SDS011;4026;43.652;24.906;2023-12-14T10:27:59;13.07;;;5.23;;
7961;SDS011;4026;43.652;24.906;2023-12-14T10:30:27;13.10;;;6.97;;
7961;SDS011;4026;43.652;24.906;2023-12-14T10:32:55;13.47;;;5.60;;
7961;SDS011;4026;43.652;24.906;2023-12-14T10:35:22;14.37;;;6.43;;
7961;SDS011;4026;43.652;24.906;2023-12-14T10:37:50;14.50;;;7.23;;
7961;SDS011;4026;43.652;24.906;2023-12-14T10:40:20;11.17;;;6.03;;
7961;SDS011;4026;43.652;24.906;2023-12-14T10:42:47;10.03;;;5.23;;
7961;SDS011;4026;43.652;24.906;2023-12-14T10:45:15;9.73;;;5.33;;
7961;SDS011;4026;43.652;24.906;2023-12-14T10:47:44;11.97;;;6.60;;
7961;SDS011;4026;43.652;24.906;2023-12-14T10:50:11;13.60;;;5.47;;
7961;SDS011;4026;43.652;24.906;2023-12-14T10:52:38;11.73;;;6.10;;
7961;SDS011;4026;43.652;24.906;2023-12-14T10:55:07;15.60;;;7.20;;
7961;SDS011;4026;43.652;24.906;2023-12-14T10:57:38;12.23;;;5.90;;
7961;SDS011;4026;43.652;24.906;2023-12-14T11:00:06;15.80;;;6.13;;
7961;SDS011;4026;43.652;24.906;2023-12-14T11:02:39;11.03;;;5.50;;
7961;SDS011;4026;43.652;24.906;2023-12-14T11:05:08;10.10;;;5.73;;
7961;SDS011;4026;43.652;24.906;2023-12-14T11:07:47;8.90;;;5.67;;
7961;SDS011;4026;43.652;24.906;2023-12-14T11:10:19;13.63;;;6.27;;
7961;SDS011;4026;43.652;24.906;2023-12-14T11:12:56;12.00;;;6.23;;
7961;SDS011;4026;43.652;24.906;2023-12-14T11:15:27;13.97;;;5.67;;
7961;SDS011;4026;43.652;24.906;2023-12-14T11:20:56;14.93;;;6.47;;
7961;SDS011;4026;43.652;24.906;2023-12-14T11:23:32;12.90;;;6.90;;
7961;SDS011;4026;43.652;24.906;2023-12-14T11:26:00;12.87;;;7.20;;
7961;SDS011;4026;43.652;24.906;2023-12-14T11:28:31;9.43;;;5.90;;
7961;SDS011;4026;43.652;24.906;2023-12-14T11:31:00;10.50;;;6.07;;
7961;SDS011;4026;43.652;24.906;2023-12-14T11:33:28;14.80;;;6.17;;
7961;SDS011;4026;43.652;24.906;2023-12-14T11:35:54;13.30;;;5.77;;
7961;SDS011;4026;43.652;24.906;2023-12-14T11:38:22;15.13;;;6.63;;
7961;SDS011;4026;43.652;24.906;2023-12-14T11:40:49;10.77;;;5.87;;
7961;SDS011;4026;43.652;24.906;2023-12-14T11:43:17;13.40;;;5.93;;
7961;SDS011;4026;43.652;24.906;2023-12-14T11:45:47;8.40;;;5.50;;
7961;SDS011;4026;43.652;24.906;2023-12-14T11:48:15;10.00;;;5.70;;
7961;SDS011;4026;43.652;24.906;2023-12-14T11:50:42;17.60;;;7.97;;
7961;SDS011;4026;43.652;24.906;2023-12-14T11:53:09;9.60;;;5.27;;
7961;SDS011;4026;43.652;24.906;2023-12-14T11:55:37;12.47;;;6.13;;
7961;SDS011;4026;43.652;24.906;2023-12-14T11:58:06;11.10;;;6.30;;
7961;SDS011;4026;43.652;24.906;2023-12-14T12:00:33;9.57;;;5.47;;
7961;SDS011;4026;43.652;24.906;2023-12-14T12:03:10;12.60;;;5.33;;
7961;SDS011;4026;43.652;24.906;2023-12-14T12:05:39;9.87;;;5.93;;
7961;SDS011;4026;43.652;24.906;2023-12-14T12:08:08;8.93;;;4.83;;
7961;SDS011;4026;43.652;24.906;2023-12-14T12:10:36;8.80;;;4.63;;
7961;SDS011;4026;43.652;24.906;2023-12-14T12:13:04;6.80;;;4.30;;
7961;SDS011;4026;43.652;24.906;2023-12-14T12:15:33;9.43;;;3.97;;
7961;SDS011;4026;43.652;24.906;2023-12-14T12:18:02;6.03;;;3.23;;
7961;SDS011;4026;43.652;24.906;2023-12-14T12:20:31;6.30;;;2.83;;
7961;SDS011;4026;43.652;24.906;2023-12-14T12:22:59;8.27;;;2.47;;
7961;SDS011;4026;43.652;24.906;2023-12-14T12:25:26;3.10;;;2.33;;
7961;SDS011;4026;43.652;24.906;2023-12-14T12:27:53;4.03;;;2.33;;
7961;SDS011;4026;43.652;24.906;2023-12-14T12:30:20;2.63;;;1.43;;
7961;SDS011;4026;43.652;24.906;2023-12-14T12:32:47;2.70;;;1.50;;
7961;SDS011;4026;43.652;24.906;2023-12-14T12:35:15;1.30;;;1.17;;
7961;SDS011;4026;43.652;24.906;2023-12-14T12:37:43;2.13;;;1.43;;
7961;SDS011;4026;43.652;24.906;2023-12-14T12:40:10;3.63;;;1.20;;
7961;SDS011;4026;43.652;24.906;2023-12-14T12:42:37;3.30;;;1.70;;
7961;SDS011;4026;43.652;24.906;2023-12-14T12:45:05;1.60;;;1.20;;
7961;SDS011;4026;43.652;24.906;2023-12-14T12:47:33;3.27;;;1.70;;
7961;SDS011;4026;43.652;24.906;2023-12-14T12:49:59;2.13;;;1.40;;
7961;SDS011;4026;43.652;24.906;2023-12-14T12:52:26;1.73;;;1.43;;
7961;SDS011;4026;43.652;24.906;2023-12-14T12:54:54;4.63;;;1.47;;
7961;SDS011;4026;43.652;24.906;2023-12-14T12:57:21;1.80;;;1.47;;
7961;SDS011;4026;43.652;24.906;2023-12-14T12:59:48;1.77;;;1.17;;
7961;SDS011;4026;43.652;24.906;2023-12-14T13:02:15;1.97;;;1.37;;
7961;SDS011;4026;43.652;24.906;2023-12-14T13:04:41;1.87;;;1.40;;
7961;SDS011;4026;43.652;24.906;2023-12-14T13:07:08;1.33;;;1.23;;
7961;SDS011;4026;43.652;24.906;2023-12-14T13:09:37;0.87;;;0.87;;
7961;SDS011;4026;43.652;24.906;2023-12-14T13:12:05;1.63;;;1.23;;
7961;SDS011;4026;43.652;24.906;2023-12-14T13:14:32;2.13;;;1.07;;
7961;SDS011;4026;43.652;24.906;2023-12-14T13:16:59;1.20;;;1.07;;
7961;SDS011;4026;43.652;24.906;2023-12-14T13:19:26;2.37;;;1.50;;
7961;SDS011;4026;43.652;24.906;2023-12-14T13:21:54;1.27;;;1.17;;
7961;SDS011;4026;43.652;24.906;2023-12-14T13:24:21;2.03;;;1.23;;
7961;SDS011;4026;43.652;24.906;2023-12-14T13:26:49;1.80;;;0.70;;
7961;SDS011;4026;43.652;24.906;2023-12-14T13:29:17;1.37;;;1.13;;
7961;SDS011;4026;43.652;24.906;2023-12-14T13:31:45;1.20;;;0.80;;
7961;SDS011;4026;43.652;24.906;2023-12-14T13:34:12;1.03;;;0.87;;
7961;SDS011;4026;43.652;24.906;2023-12-14T13:36:39;2.53;;;1.37;;
7961;SDS011;4026;43.652;24.906;2023-12-14T13:39:06;1.17;;;0.93;;
7961;SDS011;4026;43.652;24.906;2023-12-14T13:41:33;1.90;;;1.10;;
7961;SDS011;4026;43.652;24.906;2023-12-14T13:44:00;1.10;;;0.80;;
7961;SDS011;4026;43.652;24.906;2023-12-14T13:46:28;3.00;;;1.23;;
7961;SDS011;4026;43.652;24.906;2023-12-14T13:48:55;1.47;;;1.23;;
7961;SDS011;4026;43.652;24.906;2023-12-14T13:51:22;1.67;;;1.30;;
7961;SDS011;4026;43.652;24.906;2023-12-14T13:53:49;2.80;;;1.23;;
7961;SDS011;4026;43.652;24.906;2023-12-14T13:56:15;0.80;;;0.80;;
7961;SDS011;4026;43.652;24.906;2023-12-14T13:58:43;1.23;;;0.77;;
7961;SDS011;4026;43.652;24.906;2023-12-14T14:01:09;1.03;;;0.93;;
7961;SDS011;4026;43.652;24.906;2023-12-14T14:03:38;1.33;;;1.17;;
7961;SDS011;4026;43.652;24.906;2023-12-14T14:06:07;4.23;;;1.10;;
7961;SDS011;4026;43.652;24.906;2023-12-14T14:08:34;3.50;;;1.70;;
7961;SDS011;4026;43.652;24.906;2023-12-14T14:11:01;2.03;;;1.27;;
7961;SDS011;4026;43.652;24.906;2023-12-14T14:13:28;1.40;;;1.10;;
7961;SDS011;4026;43.652;24.906;2023-12-14T14:15:55;2.13;;;1.67;;
7961;SDS011;4026;43.652;24.906;2023-12-14T14:18:22;1.20;;;1.10;;
7961;SDS011;4026;43.652;24.906;2023-12-14T14:20:50;1.23;;;0.80;;
7961;SDS011;4026;43.652;24.906;2023-12-14T14:23:17;1.43;;;1.20;;
7961;SDS011;4026;43.652;24.906;2023-12-14T14:25:45;1.83;;;1.00;;
7961;SDS011;4026;43.652;24.906;2023-12-14T14:28:12;0.93;;;0.87;;
7961;SDS011;4026;43.652;24.906;2023-12-14T14:30:38;1.80;;;1.53;;
7961;SDS011;4026;43.652;24.906;2023-12-14T14:33:05;2.33;;;1.30;;
7961;SDS011;4026;43.652;24.906;2023-12-14T14:35:32;1.77;;;1.10;;
7961;SDS011;4026;43.652;24.906;2023-12-14T14:38:03;0.70;;;0.70;;
7961;SDS011;4026;43.652;24.906;2023-12-14T14:40:30;1.40;;;1.23;;
7961;SDS011;4026;43.652;24.906;2023-12-14T14:42:57;2.00;;;1.13;;
7961;SDS011;4026;43.652;24.906;2023-12-14T14:45:24;1.13;;;0.97;;
7961;SDS011;4026;43.652;24.906;2023-12-14T14:47:51;1.10;;;0.90;;
7961;SDS011;4026;43.652;24.906;2023-12-14T14:50:18;0.70;;;0.70;;
7961;SDS011;4026;43.652;24.906;2023-12-14T14:52:45;1.07;;;0.80;;
7961;SDS011;4026;43.652;24.906;2023-12-14T14:55:13;2.17;;;1.60;;
7961;SDS011;4026;43.652;24.906;2023-12-14T14:57:40;4.10;;;1.80;;
7961;SDS011;4026;43.652;24.906;2023-12-14T15:00:07;1.87;;;1.23;;
7961;SDS011;4026;43.652;24.906;2023-12-14T15:02:34;4.77;;;1.60;;